sensor_id;sensor_type;location;lat;lon;timestamp;pressure;altitude;pressure_sealevel;temperature;humidity
73106;BME280;61559;50.476;15.588;2023-06-22T00:00:35;97892.93;;;19.60;76.49
73106;BME280;61559;50.476;15.588;2023-06-22T00:03:24;97893.90;;;19.54;76.59
73106;BME280;61559;50.476;15.588;2023-06-22T00:05:53;97898.67;;;19.50;76.56
73106;BME280;61559;50.476;15.588;2023-06-22T00:08:22;97898.94;;;19.47;76.76
73106;BME280;61559;50.476;15.588;2023-06-22T00:10:50;97904.73;;;19.45;76.88
73106;BME280;61559;50.476;15.588;2023-06-22T00:13:18;97908.23;;;19.44;76.93
73106;BME280;61559;50.476;15.588;2023-06-22T00:15:47;97912.91;;;19.43;77.15
73106;BME280;61559;50.476;15.588;2023-06-22T00:18:16;97913.27;;;19.42;77.39
73106;BME280;61559;50.476;15.588;2023-06-22T00:20:44;97915.51;;;19.41;77.50
73106;BME280;61559;50.476;15.588;2023-06-22T00:23:13;97916.54;;;19.40;77.68
73106;BME280;61559;50.476;15.588;2023-06-22T00:25:43;97921.14;;;19.38;77.61
73106;BME280;61559;50.476;15.588;2023-06-22T00:28:12;97927.10;;;19.38;77.88
73106;BME280;61559;50.476;15.588;2023-06-22T00:30:40;97931.65;;;19.38;77.98
73106;BME280;61559;50.476;15.588;2023-06-22T00:33:09;97937.02;;;19.37;78.06
73106;BME280;61559;50.476;15.588;2023-06-22T00:35:37;97939.13;;;19.38;78.09
73106;BME280;61559;50.476;15.588;2023-06-22T00:38:09;97942.02;;;19.38;78.18
73106;BME280;61559;50.476;15.588;2023-06-22T00:40:37;97948.34;;;19.35;78.10
73106;BME280;61559;50.476;15.588;2023-06-22T00:43:07;97953.81;;;19.32;78.32
73106;BME280;61559;50.476;15.588;2023-06-22T00:45:35;97956.02;;;19.29;78.50
73106;BME280;61559;50.476;15.588;2023-06-22T00:48:05;97950.55;;;19.28;78.66
73106;BME280;61559;50.476;15.588;2023-06-22T00:50:34;97951.16;;;19.29;78.64
73106;BME280;61559;50.476;15.588;2023-06-22T00:53:05;97947.88;;;19.29;78.86
73106;BME280;61559;50.476;15.588;2023-06-22T00:55:37;97952.53;;;19.31;78.89
73106;BME280;61559;50.476;15.588;2023-06-22T00:58:07;97945.80;;;19.30;78.92
73106;BME280;61559;50.476;15.588;2023-06-22T01:00:39;97940.13;;;19.29;78.94
73106;BME280;61559;50.476;15.588;2023-06-22T01:03:09;97939.30;;;19.29;78.88
73106;BME280;61559;50.476;15.588;2023-06-22T01:05:39;97935.86;;;19.29;78.95
73106;BME280;61559;50.476;15.588;2023-06-22T01:08:26;97936.02;;;19.29;78.91
73106;BME280;61559;50.476;15.588;2023-06-22T01:11:05;97934.22;;;19.28;78.85
73106;BME280;61559;50.476;15.588;2023-06-22T01:13:41;97926.58;;;19.26;78.72
73106;BME280;61559;50.476;15.588;2023-06-22T01:16:16;97920.70;;;19.23;78.75
73106;BME280;61559;50.476;15.588;2023-06-22T01:18:48;97915.51;;;19.19;78.60
73106;BME280;61559;50.476;15.588;2023-06-22T01:21:20;97914.48;;;19.15;78.70
73106;BME280;61559;50.476;15.588;2023-06-22T01:24:15;97913.98;;;19.12;78.71
73106;BME280;61559;50.476;15.588;2023-06-22T01:26:54;97913.95;;;19.08;78.48
73106;BME280;61559;50.476;15.588;2023-06-22T01:29:25;97918.73;;;19.03;78.63
73106;BME280;61559;50.476;15.588;2023-06-22T01:31:56;97923.96;;;18.98;78.82
73106;BME280;61559;50.476;15.588;2023-06-22T01:34:26;97923.27;;;18.91;78.78
73106;BME280;61559;50.476;15.588;2023-06-22T01:36:55;97924.70;;;18.84;78.98
73106;BME280;61559;50.476;15.588;2023-06-22T01:39:25;97926.61;;;18.77;78.98
73106;BME280;61559;50.476;15.588;2023-06-22T01:41:54;97925.92;;;18.71;78.88
73106;BME280;61559;50.476;15.588;2023-06-22T01:44:23;97929.05;;;18.66;78.96
73106;BME280;61559;50.476;15.588;2023-06-22T01:46:53;97923.77;;;18.63;78.89
73106;BME280;61559;50.476;15.588;2023-06-22T01:49:22;97921.73;;;18.59;79.07
73106;BME280;61559;50.476;15.588;2023-06-22T01:51:50;97921.60;;;18.55;79.05
73106;BME280;61559;50.476;15.588;2023-06-22T01:54:19;97927.13;;;18.51;79.06
73106;BME280;61559;50.476;15.588;2023-06-22T01:56:47;97925.60;;;18.49;79.19
73106;BME280;61559;50.476;15.588;2023-06-22T01:59:20;97927.88;;;18.46;79.25
73106;BME280;61559;50.476;15.588;2023-06-22T02:01:57;97927.81;;;18.43;79.40
73106;BME280;61559;50.476;15.588;2023-06-22T02:04:37;97925.80;;;18.39;79.40
73106;BME280;61559;50.476;15.588;2023-06-22T02:07:11;97928.25;;;18.33;79.30
73106;BME280;61559;50.476;15.588;2023-06-22T02:09:42;97926.02;;;18.30;79.19
73106;BME280;61559;50.476;15.588;2023-06-22T02:12:13;97925.19;;;18.25;79.39
73106;BME280;61559;50.476;15.588;2023-06-22T02:14:45;97921.99;;;18.21;79.50
73106;BME280;61559;50.476;15.588;2023-06-22T02:17:14;97925.05;;;18.16;79.60
73106;BME280;61559;50.476;15.588;2023-06-22T02:19:43;97919.89;;;18.11;79.62
73106;BME280;61559;50.476;15.588;2023-06-22T02:22:11;97922.55;;;18.05;79.63
73106;BME280;61559;50.476;15.588;2023-06-22T02:24:40;97922.27;;;18.02;79.76
73106;BME280;61559;50.476;15.588;2023-06-22T02:27:08;97918.84;;;17.98;79.65
73106;BME280;61559;50.476;15.588;2023-06-22T02:29:38;97913.80;;;17.92;79.89
73106;BME280;61559;50.476;15.588;2023-06-22T02:32:08;97914.06;;;17.86;80.33
73106;BME280;61559;50.476;15.588;2023-06-22T02:34:36;97903.33;;;17.81;80.49
73106;BME280;61559;50.476;15.588;2023-06-22T02:37:05;97901.61;;;17.77;80.28
73106;BME280;61559;50.476;15.588;2023-06-22T02:39:33;97907.17;;;17.73;80.33
73106;BME280;61559;50.476;15.588;2023-06-22T02:42:02;97908.05;;;17.68;80.54
73106;BME280;61559;50.476;15.588;2023-06-22T02:44:31;97906.90;;;17.63;80.54
73106;BME280;61559;50.476;15.588;2023-06-22T02:47:00;97906.67;;;17.60;80.49
73106;BME280;61559;50.476;15.588;2023-06-22T02:49:28;97908.33;;;17.57;80.62
73106;BME280;61559;50.476;15.588;2023-06-22T02:51:57;97912.80;;;17.54;80.80
73106;BME280;61559;50.476;15.588;2023-06-22T02:54:26;97915.61;;;17.53;80.76
73106;BME280;61559;50.476;15.588;2023-06-22T02:56:54;97917.04;;;17.50;80.62
73106;BME280;61559;50.476;15.588;2023-06-22T02:59:23;97915.73;;;17.48;80.49
73106;BME280;61559;50.476;15.588;2023-06-22T03:01:51;97912.91;;;17.45;80.55
73106;BME280;61559;50.476;15.588;2023-06-22T03:04:20;97908.88;;;17.44;80.50
73106;BME280;61559;50.476;15.588;2023-06-22T03:06:48;97907.52;;;17.43;80.43
73106;BME280;61559;50.476;15.588;2023-06-22T03:09:19;97909.27;;;17.41;80.63
73106;BME280;61559;50.476;15.588;2023-06-22T03:11:47;97910.64;;;17.40;80.62
73106;BME280;61559;50.476;15.588;2023-06-22T03:14:15;97912.91;;;17.38;80.60
73106;BME280;61559;50.476;15.588;2023-06-22T03:16:44;97913.39;;;17.36;80.74
73106;BME280;61559;50.476;15.588;2023-06-22T03:19:12;97919.39;;;17.35;80.93
73106;BME280;61559;50.476;15.588;2023-06-22T03:21:41;97921.31;;;17.34;81.10
73106;BME280;61559;50.476;15.588;2023-06-22T03:24:10;97921.71;;;17.31;81.28
73106;BME280;61559;50.476;15.588;2023-06-22T03:26:38;97925.34;;;17.30;81.15
73106;BME280;61559;50.476;15.588;2023-06-22T03:29:06;97923.42;;;17.31;81.27
73106;BME280;61559;50.476;15.588;2023-06-22T03:31:35;97921.35;;;17.31;81.06
73106;BME280;61559;50.476;15.588;2023-06-22T03:34:04;97922.19;;;17.32;80.99
73106;BME280;61559;50.476;15.588;2023-06-22T03:36:33;97921.98;;;17.34;81.03
73106;BME280;61559;50.476;15.588;2023-06-22T03:39:02;97924.71;;;17.36;80.96
73106;BME280;61559;50.476;15.588;2023-06-22T03:41:31;97924.39;;;17.39;80.83
73106;BME280;61559;50.476;15.588;2023-06-22T03:43:59;97919.48;;;17.43;81.06
73106;BME280;61559;50.476;15.588;2023-06-22T03:46:27;97920.96;;;17.46;80.67
73106;BME280;61559;50.476;15.588;2023-06-22T03:48:56;97919.75;;;17.48;80.66
73106;BME280;61559;50.476;15.588;2023-06-22T03:51:28;97919.43;;;17.51;80.67
73106;BME280;61559;50.476;15.588;2023-06-22T03:53:57;97918.54;;;17.54;80.68
73106;BME280;61559;50.476;15.588;2023-06-22T03:56:26;97918.81;;;17.57;80.66
73106;BME280;61559;50.476;15.588;2023-06-22T03:58:54;97923.16;;;17.62;80.64
73106;BME280;61559;50.476;15.588;2023-06-22T04:01:22;97920.65;;;17.69;80.49
73106;BME280;61559;50.476;15.588;2023-06-22T04:03:50;97917.44;;;17.76;80.44
73106;BME280;61559;50.476;15.588;2023-06-22T04:06:19;97915.08;;;17.85;80.38
73106;BME280;61559;50.476;15.588;2023-06-22T04:08:47;97916.42;;;17.93;80.28
73106;BME280;61559;50.476;15.588;2023-06-22T04:11:18;97911.91;;;18.02;80.08
73106;BME280;61559;50.476;15.588;2023-06-22T04:13:47;97914.54;;;18.11;80.00
73106;BME280;61559;50.476;15.588;2023-06-22T04:16:16;97927.22;;;18.22;79.67
73106;BME280;61559;50.476;15.588;2023-06-22T04:18:45;97927.10;;;18.37;79.52
73106;BME280;61559;50.476;15.588;2023-06-22T04:21:14;97924.73;;;18.54;79.04
73106;BME280;61559;50.476;15.588;2023-06-22T04:23:42;97921.25;;;18.73;78.64
73106;BME280;61559;50.476;15.588;2023-06-22T04:26:12;97924.67;;;18.91;78.35
73106;BME280;61559;50.476;15.588;2023-06-22T04:28:40;97924.84;;;19.09;77.84
73106;BME280;61559;50.476;15.588;2023-06-22T04:31:09;97931.69;;;19.29;77.49
73106;BME280;61559;50.476;15.588;2023-06-22T04:33:37;97929.13;;;19.48;77.10
73106;BME280;61559;50.476;15.588;2023-06-22T04:36:08;97923.95;;;19.69;76.66
73106;BME280;61559;50.476;15.588;2023-06-22T04:38:36;97922.17;;;19.91;76.24
73106;BME280;61559;50.476;15.588;2023-06-22T04:41:05;97913.61;;;20.16;75.90
73106;BME280;61559;50.476;15.588;2023-06-22T04:43:34;97910.26;;;20.38;75.16
73106;BME280;61559;50.476;15.588;2023-06-22T04:46:04;97913.53;;;20.60;74.90
73106;BME280;61559;50.476;15.588;2023-06-22T04:48:32;97917.06;;;20.84;74.67
73106;BME280;61559;50.476;15.588;2023-06-22T04:51:01;97917.52;;;21.09;74.24
73106;BME280;61559;50.476;15.588;2023-06-22T04:53:32;97918.09;;;21.36;73.68
73106;BME280;61559;50.476;15.588;2023-06-22T04:56:00;97919.33;;;21.65;73.00
73106;BME280;61559;50.476;15.588;2023-06-22T04:58:32;97921.23;;;21.95;72.32
73106;BME280;61559;50.476;15.588;2023-06-22T05:01:00;97916.98;;;22.24;71.80
73106;BME280;61559;50.476;15.588;2023-06-22T05:03:29;97920.45;;;22.50;71.46
73106;BME280;61559;50.476;15.588;2023-06-22T05:05:57;97922.11;;;22.81;71.36
73106;BME280;61559;50.476;15.588;2023-06-22T05:08:26;97922.31;;;23.15;71.28
73106;BME280;61559;50.476;15.588;2023-06-22T05:10:56;97918.39;;;23.44;70.17
73106;BME280;61559;50.476;15.588;2023-06-22T05:13:33;97914.94;;;23.70;68.74
73106;BME280;61559;50.476;15.588;2023-06-22T05:16:02;97906.84;;;23.85;66.45
73106;BME280;61559;50.476;15.588;2023-06-22T05:18:31;97909.23;;;24.00;66.86
73106;BME280;61559;50.476;15.588;2023-06-22T05:21:00;97916.44;;;24.16;66.27
73106;BME280;61559;50.476;15.588;2023-06-22T05:23:29;97921.17;;;24.15;66.33
73106;BME280;61559;50.476;15.588;2023-06-22T05:25:58;97924.60;;;24.08;66.05
73106;BME280;61559;50.476;15.588;2023-06-22T05:28:27;97921.48;;;24.15;65.77
73106;BME280;61559;50.476;15.588;2023-06-22T05:30:55;97923.36;;;24.38;64.87
73106;BME280;61559;50.476;15.588;2023-06-22T05:33:24;97918.94;;;24.56;63.94
73106;BME280;61559;50.476;15.588;2023-06-22T05:35:53;97914.65;;;24.57;63.91
73106;BME280;61559;50.476;15.588;2023-06-22T05:38:21;97916.07;;;24.38;64.61
73106;BME280;61559;50.476;15.588;2023-06-22T05:40:50;97915.00;;;24.16;64.67
73106;BME280;61559;50.476;15.588;2023-06-22T05:43:18;97914.05;;;23.97;65.45
73106;BME280;61559;50.476;15.588;2023-06-22T05:45:46;97915.91;;;23.88;65.89
73106;BME280;61559;50.476;15.588;2023-06-22T05:48:15;97921.20;;;23.81;65.90
73106;BME280;61559;50.476;15.588;2023-06-22T05:50:43;97927.85;;;23.74;66.18
73106;BME280;61559;50.476;15.588;2023-06-22T05:53:12;97931.92;;;23.68;66.47
73106;BME280;61559;50.476;15.588;2023-06-22T05:55:40;97933.52;;;23.63;66.61
73106;BME280;61559;50.476;15.588;2023-06-22T05:58:09;97936.61;;;23.61;66.85
73106;BME280;61559;50.476;15.588;2023-06-22T06:00:37;97942.85;;;23.62;67.11
73106;BME280;61559;50.476;15.588;2023-06-22T06:03:06;97942.01;;;23.66;66.97
73106;BME280;61559;50.476;15.588;2023-06-22T06:05:35;97948.30;;;23.69;66.83
73106;BME280;61559;50.476;15.588;2023-06-22T06:08:05;97955.00;;;23.70;66.19
73106;BME280;61559;50.476;15.588;2023-06-22T06:10:34;97958.15;;;23.70;66.79
73106;BME280;61559;50.476;15.588;2023-06-22T06:13:04;97962.58;;;23.70;65.59
73106;BME280;61559;50.476;15.588;2023-06-22T06:15:33;97963.40;;;23.70;65.75
73106;BME280;61559;50.476;15.588;2023-06-22T06:18:02;97970.98;;;23.70;65.60
73106;BME280;61559;50.476;15.588;2023-06-22T06:20:33;97972.04;;;23.74;65.46
73106;BME280;61559;50.476;15.588;2023-06-22T06:23:02;97979.62;;;23.73;64.53
73106;BME280;61559;50.476;15.588;2023-06-22T06:25:30;97985.48;;;23.72;64.94
73106;BME280;61559;50.476;15.588;2023-06-22T06:27:59;97990.21;;;23.76;65.33
73106;BME280;61559;50.476;15.588;2023-06-22T06:30:28;97995.75;;;23.81;64.56
73106;BME280;61559;50.476;15.588;2023-06-22T06:32:57;97997.69;;;23.85;64.28
73106;BME280;61559;50.476;15.588;2023-06-22T06:35:25;97995.12;;;23.89;63.94
73106;BME280;61559;50.476;15.588;2023-06-22T06:37:54;97995.05;;;23.90;64.03
73106;BME280;61559;50.476;15.588;2023-06-22T06:40:23;97995.48;;;23.90;63.42
73106;BME280;61559;50.476;15.588;2023-06-22T06:42:51;97997.36;;;23.96;64.52
73106;BME280;61559;50.476;15.588;2023-06-22T06:45:21;97990.33;;;24.04;64.79
73106;BME280;61559;50.476;15.588;2023-06-22T06:47:50;97986.02;;;24.12;64.53
73106;BME280;61559;50.476;15.588;2023-06-22T06:50:20;97983.48;;;24.22;64.54
73106;BME280;61559;50.476;15.588;2023-06-22T06:52:49;97976.81;;;24.32;64.02
73106;BME280;61559;50.476;15.588;2023-06-22T06:55:18;97972.46;;;24.41;63.18
73106;BME280;61559;50.476;15.588;2023-06-22T06:57:46;97967.98;;;24.48;62.69
73106;BME280;61559;50.476;15.588;2023-06-22T07:00:18;97962.75;;;24.55;63.04
73106;BME280;61559;50.476;15.588;2023-06-22T07:02:49;97966.39;;;24.62;62.57
73106;BME280;61559;50.476;15.588;2023-06-22T07:05:18;97965.45;;;24.67;61.99
73106;BME280;61559;50.476;15.588;2023-06-22T07:07:47;97969.54;;;24.73;61.45
73106;BME280;61559;50.476;15.588;2023-06-22T07:10:15;97964.93;;;24.75;60.34
73106;BME280;61559;50.476;15.588;2023-06-22T07:12:44;97967.65;;;24.75;59.47
73106;BME280;61559;50.476;15.588;2023-06-22T07:15:13;97966.73;;;24.76;59.78
73106;BME280;61559;50.476;15.588;2023-06-22T07:17:41;97960.74;;;24.82;59.84
73106;BME280;61559;50.476;15.588;2023-06-22T07:20:12;97957.32;;;24.86;59.22
73106;BME280;61559;50.476;15.588;2023-06-22T07:22:42;97956.08;;;24.91;59.10
73106;BME280;61559;50.476;15.588;2023-06-22T07:25:11;97952.44;;;24.95;59.11
73106;BME280;61559;50.476;15.588;2023-06-22T07:27:45;97952.66;;;24.97;57.24
73106;BME280;61559;50.476;15.588;2023-06-22T07:30:14;97954.39;;;24.98;57.52
73106;BME280;61559;50.476;15.588;2023-06-22T07:32:43;97958.06;;;25.01;57.43
73106;BME280;61559;50.476;15.588;2023-06-22T07:35:11;97959.96;;;25.06;57.84
73106;BME280;61559;50.476;15.588;2023-06-22T07:37:40;97962.69;;;25.12;58.58
73106;BME280;61559;50.476;15.588;2023-06-22T07:40:10;97958.15;;;25.20;57.79
73106;BME280;61559;50.476;15.588;2023-06-22T07:42:39;97958.45;;;25.28;58.47
73106;BME280;61559;50.476;15.588;2023-06-22T07:45:08;97959.81;;;25.35;57.52
73106;BME280;61559;50.476;15.588;2023-06-22T07:47:36;97958.22;;;25.36;56.92
73106;BME280;61559;50.476;15.588;2023-06-22T07:50:06;97953.42;;;25.34;56.76
73106;BME280;61559;50.476;15.588;2023-06-22T07:52:34;97951.08;;;25.35;57.58
73106;BME280;61559;50.476;15.588;2023-06-22T07:55:04;97950.63;;;25.42;56.62
73106;BME280;61559;50.476;15.588;2023-06-22T07:57:33;97944.09;;;25.46;55.60
73106;BME280;61559;50.476;15.588;2023-06-22T08:00:02;97939.58;;;25.53;55.98
73106;BME280;61559;50.476;15.588;2023-06-22T08:02:39;97946.80;;;25.61;55.87
73106;BME280;61559;50.476;15.588;2023-06-22T08:05:09;97942.98;;;25.68;55.74
73106;BME280;61559;50.476;15.588;2023-06-22T08:07:49;97936.98;;;25.71;54.76
73106;BME280;61559;50.476;15.588;2023-06-22T08:10:18;97933.66;;;25.72;54.31
73106;BME280;61559;50.476;15.588;2023-06-22T08:12:47;97932.30;;;25.72;54.94
73106;BME280;61559;50.476;15.588;2023-06-22T08:15:15;97929.02;;;25.76;55.38
73106;BME280;61559;50.476;15.588;2023-06-22T08:17:44;97923.60;;;25.80;55.29
73106;BME280;61559;50.476;15.588;2023-06-22T08:20:13;97919.68;;;25.87;55.72
73106;BME280;61559;50.476;15.588;2023-06-22T08:22:43;97918.15;;;25.94;54.52
73106;BME280;61559;50.476;15.588;2023-06-22T08:25:12;97915.70;;;25.97;54.61
73106;BME280;61559;50.476;15.588;2023-06-22T08:27:42;97906.00;;;26.04;54.93
73106;BME280;61559;50.476;15.588;2023-06-22T08:30:13;97904.14;;;26.13;54.88
73106;BME280;61559;50.476;15.588;2023-06-22T08:32:41;97903.79;;;26.17;54.05
73106;BME280;61559;50.476;15.588;2023-06-22T08:35:10;97899.59;;;26.20;54.53
73106;BME280;61559;50.476;15.588;2023-06-22T08:37:38;97904.24;;;26.27;54.31
73106;BME280;61559;50.476;15.588;2023-06-22T08:40:09;97907.20;;;26.30;54.33
73106;BME280;61559;50.476;15.588;2023-06-22T08:42:39;97902.37;;;26.31;53.87
73106;BME280;61559;50.476;15.588;2023-06-22T08:45:10;97894.55;;;26.36;55.20
73106;BME280;61559;50.476;15.588;2023-06-22T08:47:38;97900.56;;;26.42;55.09
73106;BME280;61559;50.476;15.588;2023-06-22T08:50:08;97904.29;;;26.55;55.69
73106;BME280;61559;50.476;15.588;2023-06-22T08:52:38;97904.05;;;26.69;54.51
73106;BME280;61559;50.476;15.588;2023-06-22T08:55:10;97899.73;;;26.75;53.20
73106;BME280;61559;50.476;15.588;2023-06-22T08:57:38;97896.86;;;26.75;52.78
73106;BME280;61559;50.476;15.588;2023-06-22T09:00:09;97885.41;;;26.78;52.92
73106;BME280;61559;50.476;15.588;2023-06-22T09:02:44;97879.23;;;26.89;53.39
73106;BME280;61559;50.476;15.588;2023-06-22T09:05:13;97877.76;;;27.01;53.01
73106;BME280;61559;50.476;15.588;2023-06-22T09:07:42;97870.07;;;27.12;52.32
73106;BME280;61559;50.476;15.588;2023-06-22T09:10:11;97871.67;;;27.23;51.35
73106;BME280;61559;50.476;15.588;2023-06-22T09:12:40;97871.52;;;27.31;50.94
73106;BME280;61559;50.476;15.588;2023-06-22T09:15:09;97873.46;;;27.36;51.05
73106;BME280;61559;50.476;15.588;2023-06-22T09:17:43;97880.02;;;27.45;51.06
73106;BME280;61559;50.476;15.588;2023-06-22T09:20:12;97881.05;;;27.54;51.12
73106;BME280;61559;50.476;15.588;2023-06-22T09:22:40;97880.48;;;27.60;50.54
73106;BME280;61559;50.476;15.588;2023-06-22T09:25:10;97882.05;;;27.66;50.00
73106;BME280;61559;50.476;15.588;2023-06-22T09:27:38;97875.11;;;27.72;48.65
73106;BME280;61559;50.476;15.588;2023-06-22T09:30:08;97876.71;;;27.73;47.23
73106;BME280;61559;50.476;15.588;2023-06-22T09:32:37;97871.55;;;27.72;47.57
73106;BME280;61559;50.476;15.588;2023-06-22T09:35:08;97870.23;;;27.76;48.68
73106;BME280;61559;50.476;15.588;2023-06-22T09:37:38;97867.86;;;27.80;47.28
73106;BME280;61559;50.476;15.588;2023-06-22T09:40:08;97864.83;;;27.84;48.54
73106;BME280;61559;50.476;15.588;2023-06-22T09:42:39;97867.91;;;27.92;47.96
73106;BME280;61559;50.476;15.588;2023-06-22T09:45:08;97861.50;;;27.94;46.89
73106;BME280;61559;50.476;15.588;2023-06-22T09:47:37;97861.09;;;27.96;46.40
73106;BME280;61559;50.476;15.588;2023-06-22T09:50:07;97859.61;;;27.98;46.32
73106;BME280;61559;50.476;15.588;2023-06-22T09:52:36;97861.48;;;27.99;46.85
73106;BME280;61559;50.476;15.588;2023-06-22T09:55:08;97855.92;;;28.06;47.89
73106;BME280;61559;50.476;15.588;2023-06-22T09:57:36;97850.23;;;28.18;48.32
73106;BME280;61559;50.476;15.588;2023-06-22T10:00:07;97855.19;;;28.29;47.80
73106;BME280;61559;50.476;15.588;2023-06-22T10:02:38;97847.61;;;28.39;47.63
73106;BME280;61559;50.476;15.588;2023-06-22T10:05:07;97852.23;;;28.51;45.78
73106;BME280;61559;50.476;15.588;2023-06-22T10:07:36;97854.23;;;28.51;45.91
73106;BME280;61559;50.476;15.588;2023-06-22T10:10:08;97856.73;;;28.47;45.23
73106;BME280;61559;50.476;15.588;2023-06-22T10:12:40;97857.48;;;28.48;46.89
73106;BME280;61559;50.476;15.588;2023-06-22T10:15:10;97856.55;;;28.54;45.19
73106;BME280;61559;50.476;15.588;2023-06-22T10:17:39;97856.45;;;28.56;44.95
73106;BME280;61559;50.476;15.588;2023-06-22T10:20:09;97856.02;;;28.54;45.82
73106;BME280;61559;50.476;15.588;2023-06-22T10:22:42;97855.75;;;28.54;45.62
73106;BME280;61559;50.476;15.588;2023-06-22T10:25:12;97859.31;;;28.56;45.80
73106;BME280;61559;50.476;15.588;2023-06-22T10:27:41;97856.13;;;28.64;46.80
73106;BME280;61559;50.476;15.588;2023-06-22T10:30:12;97843.86;;;28.74;46.41
73106;BME280;61559;50.476;15.588;2023-06-22T10:32:42;97841.72;;;28.87;46.53
73106;BME280;61559;50.476;15.588;2023-06-22T10:35:11;97833.63;;;28.95;45.45
73106;BME280;61559;50.476;15.588;2023-06-22T10:37:41;97826.90;;;29.00;44.93
73106;BME280;61559;50.476;15.588;2023-06-22T10:40:13;97825.00;;;29.06;44.22
73106;BME280;61559;50.476;15.588;2023-06-22T10:42:42;97825.67;;;29.06;44.34
73106;BME280;61559;50.476;15.588;2023-06-22T10:45:10;97831.67;;;29.08;44.58
73106;BME280;61559;50.476;15.588;2023-06-22T10:47:39;97827.73;;;29.09;44.43
73106;BME280;61559;50.476;15.588;2023-06-22T10:50:11;97824.52;;;29.12;44.48
73106;BME280;61559;50.476;15.588;2023-06-22T10:52:39;97825.84;;;29.19;43.77
73106;BME280;61559;50.476;15.588;2023-06-22T10:55:10;97822.64;;;29.20;43.24
73106;BME280;61559;50.476;15.588;2023-06-22T10:57:39;97826.66;;;29.17;43.64
73106;BME280;61559;50.476;15.588;2023-06-22T11:00:14;97819.44;;;29.12;43.53
73106;BME280;61559;50.476;15.588;2023-06-22T11:02:43;97820.66;;;29.12;44.71
73106;BME280;61559;50.476;15.588;2023-06-22T11:05:12;97817.34;;;29.17;44.61
73106;BME280;61559;50.476;15.588;2023-06-22T11:07:43;97808.27;;;29.24;43.45
73106;BME280;61559;50.476;15.588;2023-06-22T11:10:16;97807.79;;;29.32;43.43
73106;BME280;61559;50.476;15.588;2023-06-22T11:12:45;97808.20;;;29.37;42.43
73106;BME280;61559;50.476;15.588;2023-06-22T11:15:13;97805.55;;;29.40;42.73
73106;BME280;61559;50.476;15.588;2023-06-22T11:17:42;97807.45;;;29.50;42.34
73106;BME280;61559;50.476;15.588;2023-06-22T11:20:12;97807.61;;;29.54;42.64
73106;BME280;61559;50.476;15.588;2023-06-22T11:22:39;97804.52;;;29.61;42.52
73106;BME280;61559;50.476;15.588;2023-06-22T11:25:09;97807.53;;;29.70;43.45
73106;BME280;61559;50.476;15.588;2023-06-22T11:27:39;97804.92;;;29.83;42.48
73106;BME280;61559;50.476;15.588;2023-06-22T11:30:10;97801.95;;;29.93;43.02
73106;BME280;61559;50.476;15.588;2023-06-22T11:32:38;97800.14;;;30.03;43.29
73106;BME280;61559;50.476;15.588;2023-06-22T11:35:08;97793.97;;;30.09;42.08
73106;BME280;61559;50.476;15.588;2023-06-22T11:37:36;97797.70;;;30.13;42.93
73106;BME280;61559;50.476;15.588;2023-06-22T11:40:07;97796.44;;;30.24;42.94
73106;BME280;61559;50.476;15.588;2023-06-22T11:42:37;97799.01;;;30.31;42.03
73106;BME280;61559;50.476;15.588;2023-06-22T11:45:07;97789.08;;;30.31;41.61
73106;BME280;61559;50.476;15.588;2023-06-22T11:47:36;97785.54;;;30.30;41.35
73106;BME280;61559;50.476;15.588;2023-06-22T11:50:07;97784.80;;;30.33;41.52
73106;BME280;61559;50.476;15.588;2023-06-22T11:52:35;97781.80;;;30.36;40.96
73106;BME280;61559;50.476;15.588;2023-06-22T11:55:06;97784.92;;;30.38;41.51
73106;BME280;61559;50.476;15.588;2023-06-22T11:57:35;97776.45;;;30.40;41.50
73106;BME280;61559;50.476;15.588;2023-06-22T12:00:05;97779.41;;;30.42;40.90
73106;BME280;61559;50.476;15.588;2023-06-22T12:02:44;97773.16;;;30.38;40.41
73106;BME280;61559;50.476;15.588;2023-06-22T12:05:13;97775.96;;;30.25;40.30
73106;BME280;61559;50.476;15.588;2023-06-22T12:07:41;97767.84;;;30.18;40.60
73106;BME280;61559;50.476;15.588;2023-06-22T12:10:10;97765.52;;;30.20;40.75
73106;BME280;61559;50.476;15.588;2023-06-22T12:12:39;97765.23;;;30.20;40.81
73106;BME280;61559;50.476;15.588;2023-06-22T12:17:37;97760.23;;;29.86;41.39
73106;BME280;61559;50.476;15.588;2023-06-22T12:20:08;97755.22;;;29.83;41.74
73106;BME280;61559;50.476;15.588;2023-06-22T12:22:36;97757.27;;;29.90;42.59
73106;BME280;61559;50.476;15.588;2023-06-22T12:25:07;97751.92;;;30.04;42.89
73106;BME280;61559;50.476;15.588;2023-06-22T12:27:34;97747.27;;;30.12;41.71
73106;BME280;61559;50.476;15.588;2023-06-22T12:30:04;97748.25;;;30.16;41.57
73106;BME280;61559;50.476;15.588;2023-06-22T12:32:32;97737.23;;;30.22;41.08
73106;BME280;61559;50.476;15.588;2023-06-22T12:35:01;97752.17;;;30.26;41.79
73106;BME280;61559;50.476;15.588;2023-06-22T12:37:31;97747.85;;;30.35;41.39
73106;BME280;61559;50.476;15.588;2023-06-22T12:40:00;97748.88;;;30.42;41.39
73106;BME280;61559;50.476;15.588;2023-06-22T12:42:29;97754.70;;;30.56;41.15
73106;BME280;61559;50.476;15.588;2023-06-22T12:44:57;97749.16;;;30.68;40.33
73106;BME280;61559;50.476;15.588;2023-06-22T12:47:25;97740.72;;;30.74;40.58
73106;BME280;61559;50.476;15.588;2023-06-22T12:49:54;97739.55;;;30.81;40.53
73106;BME280;61559;50.476;15.588;2023-06-22T12:52:22;97736.39;;;30.89;40.83
73106;BME280;61559;50.476;15.588;2023-06-22T12:54:51;97732.63;;;30.98;40.40
73106;BME280;61559;50.476;15.588;2023-06-22T12:57:23;97721.74;;;31.03;39.70
73106;BME280;61559;50.476;15.588;2023-06-22T12:59:52;97722.10;;;31.08;39.17
73106;BME280;61559;50.476;15.588;2023-06-22T13:02:20;97720.06;;;31.05;38.58
73106;BME280;61559;50.476;15.588;2023-06-22T13:04:49;97725.88;;;30.96;39.45